KPOU/POU METAR and TAF weather

Enter ICAO airport designator
Station Type Date Time Source
KPOU METAR 2019/02/16 16:53 UTC NOAA

KPOU 161653Z 36006KT 10SM CLR 04/M07 A2986 RMK AO2 SLP110 T00391072


Station Type Date Time Source
KPOU Decoded METAR 2019/02/16 16:53 UTC NOAA

POUGHKEEPSIE DUTCHESS CTY, NY, United States (KPOU) 41-38N 073-53W 46M
Feb 16, 2019 - 11:53 AM EST / 2019.02.16 1653 UTC
Wind: from the N (360 degrees) at 7 MPH (6 KT):0
Visibility: 10 mile(s):0
Sky conditions: clear
Temperature: 39.0 F (3.9 C)
Dew Point: 19.0 F (-7.2 C)
Relative Humidity: 44%
Pressure (altimeter): 29.86 in. Hg (1011 hPa)
ob: KPOU 161653Z 36006KT 10SM CLR 04/M07 A2986 RMK AO2 SLP110 T00391072
cycle: 17

Station Type Date Time Source
KPOU TAF 2019/02/16 12:33 UTC NOAA

TAF KPOU 161130Z 1612/1712 30007KT P6SM SCT150
FM161700 33009G19KT P6SM FEW030
FM162300 35007KT P6SM SKC


Example: see airport list